LIMF Airport Information

Runway Information
Runway 18 Length 10827 ft width 197 ft
Elevation 981 ft Threshold 2378 ft Heading 183
Runway 36 Length 10827 ft Width 197 ft
Elevation 933 ft Threshold 1148 ft Heading 3
Airport Frequencies
Type APP Name APP Frequency 23.44 MHZ
Type APP Name APP Frequency 129.275 MHZ
Type ATIS Name ATIS Frequency 120.475 MHZ
Type GND Name GND Frequency 121.7 MHZ
Type TWR Name TWR Frequency 118.5 MHZ
Airport Navaids
Type TACAN Name Caselle Frequency 109500 KHZ
Type NDB Name Caselle Frequency 357 KHZ
Type VOR-DME Name Caselle Frequency 116750 KHZ
Type VOR-DME Name Torino Frequency 114500 KHZ
Type NDB Name Torino Frequency 393 KHZ
Airport Weather Information & NOTAM
ADDS - METARS form results

(1032 UTC 08 May 2021)
Data provider http://aviationweather.gov/metar/data/
 
METAR text: LIMF 081020Z 04006KT 350V110 9999 SCT040 16/09 Q1021
Conditions at: LIMF (TORINO/CASELLE , IT) observed 1020 UTC 08 May 2021
Temperature: 16.0°C (61°F)
Dewpoint: 9.0°C (48°F) [RH = 63%]
Pressure (altimeter): 30.15 inches Hg (1021.0 mb)
Winds: from the NE (40 degrees) at 7 MPH (6 knots; 3.1 m/s)
Visibility: 6 or more miles (10+ km)
Ceiling: at least 12,000 feet AGL
Clouds: scattered clouds at 4000 feet AGL
Weather: no significant weather observed at this time

METAR text: LIMF 080950Z 05005KT 020V090 9999 SCT040 16/08 Q1021
Conditions at: LIMF (TORINO/CASELLE , IT) observed 0950 UTC 08 May 2021
Temperature: 16.0°C (61°F)
Dewpoint: 8.0°C (46°F) [RH = 59%]
Pressure (altimeter): 30.15 inches Hg (1021.0 mb)
Winds: from the NE (50 degrees) at 6 MPH (5 knots; 2.6 m/s)
Visibility: 6 or more miles (10+ km)
Ceiling: at least 12,000 feet AGL
Clouds: scattered clouds at 4000 feet AGL
Weather: no significant weather observed at this time

Forecast for: LIMF (TORINO/CASELLE , IT)
Text: TAF LIMF 080500Z 0806/0906 32008KT 9999 FEW050
Forecast period: 0600 UTC 08 May 2021 to 0600 UTC 09 May 2021
Forecast type: FROM: standard forecast or significant change
Winds: from the NW (320 degrees) at 9 MPH (8 knots; 4.1 m/s)
Visibility: 6 or more miles (10+ km)
Ceiling: at least 12,000 feet AGL
Clouds: few clouds at 5000 feet AGL
Weather: no significant weather forecast for this period
Text: BECMG 0806/0808 10010KT
Forecast period: 0600 to 1500 UTC 08 May 2021
Forecast type: BECOMING: Conditions expected to become as follows by 0800 UTC 08 May 2021
Winds: from the E (100 degrees) at 12 MPH (10 knots; 5.1 m/s)
Visibility: 6 or more miles (10+ km)
Ceiling: at least 12,000 feet AGL
Clouds: few clouds at 5000 feet AGL
Weather: no significant weather forecast for this period
Text: BECMG 0815/0817 VRB05KT
Forecast period: 1500 UTC 08 May 2021 to 0600 UTC 09 May 2021
Forecast type: BECOMING: Conditions expected to become as follows by 1700 UTC 08 May 2021
Winds: variable direction winds at 6 MPH (5 knots; 2.6 m/s)
Visibility: 6 or more miles (10+ km)
Ceiling: at least 12,000 feet AGL
Clouds: few clouds at 5000 feet AGL
Weather: no significant weather forecast for this period